sensor_id;sensor_type;location;lat;lon;timestamp;P1;durP1;ratioP1;P2;durP2;ratioP2
3979;SDS011;2004;52.452;13.120;2022-08-01T00:00:01;3.70;;;3.40;;
3979;SDS011;2004;52.452;13.120;2022-08-01T00:07:56;5.43;;;3.97;;
3979;SDS011;2004;52.452;13.120;2022-08-01T00:15:47;8.20;;;3.70;;
3979;SDS011;2004;52.452;13.120;2022-08-01T00:23:37;6.77;;;3.57;;
3979;SDS011;2004;52.452;13.120;2022-08-01T00:31:28;5.30;;;4.47;;
3979;SDS011;2004;52.452;13.120;2022-08-01T00:39:18;4.50;;;4.10;;
3979;SDS011;2004;52.452;13.120;2022-08-01T00:47:09;4.43;;;4.07;;
3979;SDS011;2004;52.452;13.120;2022-08-01T00:54:59;5.20;;;4.20;;
3979;SDS011;2004;52.452;13.120;2022-08-01T01:02:50;6.40;;;3.97;;
3979;SDS011;2004;52.452;13.120;2022-08-01T01:11:17;5.47;;;3.80;;
3979;SDS011;2004;52.452;13.120;2022-08-01T01:19:01;5.73;;;4.37;;
3979;SDS011;2004;52.452;13.120;2022-08-01T01:26:57;5.07;;;4.57;;
3979;SDS011;2004;52.452;13.120;2022-08-01T01:34:58;5.10;;;4.70;;
3979;SDS011;2004;52.452;13.120;2022-08-01T01:42:50;6.60;;;5.20;;
3979;SDS011;2004;52.452;13.120;2022-08-01T01:50:42;5.13;;;4.63;;
3979;SDS011;2004;52.452;13.120;2022-08-01T01:58:34;5.90;;;5.30;;
3979;SDS011;2004;52.452;13.120;2022-08-01T02:06:29;5.37;;;4.70;;
3979;SDS011;2004;52.452;13.120;2022-08-01T02:14:21;5.17;;;4.67;;
3979;SDS011;2004;52.452;13.120;2022-08-01T02:22:18;5.23;;;4.83;;
3979;SDS011;2004;52.452;13.120;2022-08-01T02:30:24;8.40;;;5.30;;
3979;SDS011;2004;52.452;13.120;2022-08-01T02:38:15;5.27;;;4.87;;
3979;SDS011;2004;52.452;13.120;2022-08-01T02:46:08;5.80;;;5.20;;
3979;SDS011;2004;52.452;13.120;2022-08-01T02:54:05;5.50;;;5.00;;
3979;SDS011;2004;52.452;13.120;2022-08-01T03:01:58;6.40;;;4.97;;
3979;SDS011;2004;52.452;13.120;2022-08-01T03:09:50;12.43;;;6.13;;
3979;SDS011;2004;52.452;13.120;2022-08-01T03:17:43;6.33;;;5.40;;
3979;SDS011;2004;52.452;13.120;2022-08-01T03:25:36;6.37;;;4.80;;
3979;SDS011;2004;52.452;13.120;2022-08-01T03:33:29;5.67;;;5.07;;
3979;SDS011;2004;52.452;13.120;2022-08-01T03:41:20;6.60;;;5.27;;
3979;SDS011;2004;52.452;13.120;2022-08-01T03:49:14;7.37;;;5.80;;
3979;SDS011;2004;52.452;13.120;2022-08-01T03:57:08;7.30;;;6.27;;
3979;SDS011;2004;52.452;13.120;2022-08-01T04:05:00;8.30;;;6.70;;
3979;SDS011;2004;52.452;13.120;2022-08-01T04:12:51;10.20;;;5.87;;
3979;SDS011;2004;52.452;13.120;2022-08-01T04:20:42;7.63;;;6.93;;
3979;SDS011;2004;52.452;13.120;2022-08-01T04:28:33;7.83;;;7.03;;
3979;SDS011;2004;52.452;13.120;2022-08-01T04:36:26;11.43;;;6.37;;
3979;SDS011;2004;52.452;13.120;2022-08-01T04:44:20;7.40;;;6.17;;
3979;SDS011;2004;52.452;13.120;2022-08-01T04:52:10;10.87;;;7.90;;
3979;SDS011;2004;52.452;13.120;2022-08-01T05:00:02;13.03;;;7.93;;
3979;SDS011;2004;52.452;13.120;2022-08-01T05:07:53;8.67;;;6.97;;
3979;SDS011;2004;52.452;13.120;2022-08-01T05:15:44;11.00;;;6.63;;
3979;SDS011;2004;52.452;13.120;2022-08-01T05:23:34;9.27;;;8.30;;
3979;SDS011;2004;52.452;13.120;2022-08-01T05:31:25;10.57;;;7.67;;
3979;SDS011;2004;52.452;13.120;2022-08-01T05:39:15;10.80;;;8.27;;
3979;SDS011;2004;52.452;13.120;2022-08-01T05:47:06;8.67;;;6.83;;
3979;SDS011;2004;52.452;13.120;2022-08-01T05:54:56;7.83;;;6.00;;
3979;SDS011;2004;52.452;13.120;2022-08-01T06:02:47;9.73;;;5.23;;
3979;SDS011;2004;52.452;13.120;2022-08-01T06:10:37;16.83;;;4.73;;
3979;SDS011;2004;52.452;13.120;2022-08-01T06:18:28;9.67;;;6.60;;
3979;SDS011;2004;52.452;13.120;2022-08-01T06:26:19;6.10;;;5.53;;
3979;SDS011;2004;52.452;13.120;2022-08-01T06:34:09;7.40;;;5.90;;
3979;SDS011;2004;52.452;13.120;2022-08-01T06:42:00;5.33;;;4.83;;
3979;SDS011;2004;52.452;13.120;2022-08-01T06:49:50;5.87;;;5.30;;
3979;SDS011;2004;52.452;13.120;2022-08-01T06:57:45;3.90;;;3.60;;
3979;SDS011;2004;52.452;13.120;2022-08-01T07:05:36;3.67;;;3.47;;
3979;SDS011;2004;52.452;13.120;2022-08-01T07:13:27;3.33;;;3.13;;
3979;SDS011;2004;52.452;13.120;2022-08-01T07:21:20;4.87;;;4.20;;
3979;SDS011;2004;52.452;13.120;2022-08-01T07:29:11;6.23;;;5.67;;
3979;SDS011;2004;52.452;13.120;2022-08-01T07:37:01;7.23;;;6.50;;
3979;SDS011;2004;52.452;13.120;2022-08-01T07:44:52;10.93;;;6.83;;
3979;SDS011;2004;52.452;13.120;2022-08-01T07:52:42;13.40;;;7.33;;
3979;SDS011;2004;52.452;13.120;2022-08-01T08:00:33;6.73;;;6.13;;
3979;SDS011;2004;52.452;13.120;2022-08-01T08:08:23;4.87;;;4.40;;
3979;SDS011;2004;52.452;13.120;2022-08-01T08:16:14;3.80;;;3.40;;
3979;SDS011;2004;52.452;13.120;2022-08-01T08:24:05;3.10;;;2.90;;
3979;SDS011;2004;52.452;13.120;2022-08-01T08:32:15;2.10;;;2.00;;
3979;SDS011;2004;52.452;13.120;2022-08-01T08:40:06;2.37;;;2.17;;
3979;SDS011;2004;52.452;13.120;2022-08-01T08:47:57;2.50;;;2.40;;
3979;SDS011;2004;52.452;13.120;2022-08-01T08:55:48;5.53;;;3.27;;
3979;SDS011;2004;52.452;13.120;2022-08-01T09:03:40;2.47;;;2.30;;
3979;SDS011;2004;52.452;13.120;2022-08-01T09:11:31;2.33;;;2.23;;
3979;SDS011;2004;52.452;13.120;2022-08-01T09:19:21;2.30;;;2.10;;
3979;SDS011;2004;52.452;13.120;2022-08-01T09:27:19;4.03;;;1.90;;
3979;SDS011;2004;52.452;13.120;2022-08-01T09:35:27;2.20;;;2.00;;
3979;SDS011;2004;52.452;13.120;2022-08-01T09:43:28;3.40;;;1.67;;
3979;SDS011;2004;52.452;13.120;2022-08-01T09:51:27;5.93;;;1.80;;
3979;SDS011;2004;52.452;13.120;2022-08-01T09:59:19;7.00;;;1.37;;
3979;SDS011;2004;52.452;13.120;2022-08-01T10:07:10;1.70;;;1.30;;
3979;SDS011;2004;52.452;13.120;2022-08-01T10:15:00;2.17;;;1.20;;
3979;SDS011;2004;52.452;13.120;2022-08-01T10:22:54;8.03;;;1.30;;
3979;SDS011;2004;52.452;13.120;2022-08-01T10:30:47;2.80;;;1.90;;
3979;SDS011;2004;52.452;13.120;2022-08-01T10:38:38;2.13;;;1.77;;
3979;SDS011;2004;52.452;13.120;2022-08-01T10:46:30;3.10;;;1.53;;
3979;SDS011;2004;52.452;13.120;2022-08-01T10:54:23;1.30;;;1.20;;
3979;SDS011;2004;52.452;13.120;2022-08-01T11:02:25;3.30;;;1.30;;
3979;SDS011;2004;52.452;13.120;2022-08-01T11:10:25;2.40;;;1.37;;
3979;SDS011;2004;52.452;13.120;2022-08-01T11:26:18;1.43;;;1.00;;
3979;SDS011;2004;52.452;13.120;2022-08-01T11:34:09;3.43;;;1.73;;
3979;SDS011;2004;52.452;13.120;2022-08-01T11:42:17;2.40;;;1.40;;
3979;SDS011;2004;52.452;13.120;2022-08-01T11:50:29;2.83;;;1.00;;
3979;SDS011;2004;52.452;13.120;2022-08-01T11:58:23;3.43;;;1.43;;
3979;SDS011;2004;52.452;13.120;2022-08-01T12:06:25;6.60;;;1.10;;
3979;SDS011;2004;52.452;13.120;2022-08-01T12:14:18;4.40;;;1.20;;
3979;SDS011;2004;52.452;13.120;2022-08-01T12:22:11;1.27;;;1.27;;
3979;SDS011;2004;52.452;13.120;2022-08-01T12:30:10;19.43;;;1.50;;
3979;SDS011;2004;52.452;13.120;2022-08-01T12:38:03;1.63;;;0.90;;
3979;SDS011;2004;52.452;13.120;2022-08-01T12:45:56;0.80;;;0.80;;
3979;SDS011;2004;52.452;13.120;2022-08-01T12:53:48;1.17;;;0.80;;
3979;SDS011;2004;52.452;13.120;2022-08-01T13:01:40;1.17;;;1.07;;
3979;SDS011;2004;52.452;13.120;2022-08-01T13:09:31;4.53;;;1.53;;
3979;SDS011;2004;52.452;13.120;2022-08-01T13:17:31;0.93;;;0.90;;
3979;SDS011;2004;52.452;13.120;2022-08-01T13:25:25;0.90;;;0.90;;
3979;SDS011;2004;52.452;13.120;2022-08-01T13:33:18;1.20;;;0.70;;
3979;SDS011;2004;52.452;13.120;2022-08-01T13:41:08;2.83;;;0.90;;
3979;SDS011;2004;52.452;13.120;2022-08-01T13:48:59;1.00;;;0.90;;
3979;SDS011;2004;52.452;13.120;2022-08-01T13:56:50;3.43;;;1.00;;
3979;SDS011;2004;52.452;13.120;2022-08-01T14:04:41;2.90;;;0.90;;
3979;SDS011;2004;52.452;13.120;2022-08-01T14:12:32;3.77;;;1.10;;
3979;SDS011;2004;52.452;13.120;2022-08-01T14:20:22;0.80;;;0.80;;
3979;SDS011;2004;52.452;13.120;2022-08-01T14:28:13;2.20;;;0.80;;
3979;SDS011;2004;52.452;13.120;2022-08-01T14:36:03;9.77;;;1.30;;
3979;SDS011;2004;52.452;13.120;2022-08-01T14:43:54;1.10;;;1.10;;
3979;SDS011;2004;52.452;13.120;2022-08-01T14:51:45;1.10;;;1.00;;
3979;SDS011;2004;52.452;13.120;2022-08-01T14:59:35;1.57;;;1.00;;
3979;SDS011;2004;52.452;13.120;2022-08-01T15:07:26;1.03;;;1.03;;
3979;SDS011;2004;52.452;13.120;2022-08-01T15:15:16;1.70;;;0.90;;
3979;SDS011;2004;52.452;13.120;2022-08-01T15:23:07;2.30;;;1.00;;
3979;SDS011;2004;52.452;13.120;2022-08-01T15:30:57;0.93;;;0.93;;
3979;SDS011;2004;52.452;13.120;2022-08-01T15:38:48;2.50;;;0.90;;
3979;SDS011;2004;52.452;13.120;2022-08-01T15:46:39;0.83;;;0.83;;
3979;SDS011;2004;52.452;13.120;2022-08-01T15:54:29;1.83;;;1.30;;
3979;SDS011;2004;52.452;13.120;2022-08-01T16:02:20;3.20;;;0.90;;
3979;SDS011;2004;52.452;13.120;2022-08-01T16:10:10;3.13;;;1.20;;
3979;SDS011;2004;52.452;13.120;2022-08-01T16:18:01;2.00;;;0.90;;
3979;SDS011;2004;52.452;13.120;2022-08-01T16:25:52;2.70;;;0.87;;
3979;SDS011;2004;52.452;13.120;2022-08-01T16:33:43;2.20;;;0.90;;
3979;SDS011;2004;52.452;13.120;2022-08-01T16:41:34;1.83;;;1.00;;
3979;SDS011;2004;52.452;13.120;2022-08-01T16:49:24;3.30;;;0.90;;
3979;SDS011;2004;52.452;13.120;2022-08-01T16:57:15;1.23;;;0.70;;
3979;SDS011;2004;52.452;13.120;2022-08-01T17:05:06;3.70;;;1.17;;
3979;SDS011;2004;52.452;13.120;2022-08-01T17:12:57;5.30;;;0.90;;
3979;SDS011;2004;52.452;13.120;2022-08-01T17:20:48;1.17;;;1.00;;
3979;SDS011;2004;52.452;13.120;2022-08-01T17:28:39;2.80;;;1.17;;
3979;SDS011;2004;52.452;13.120;2022-08-01T17:36:29;2.50;;;1.40;;
3979;SDS011;2004;52.452;13.120;2022-08-01T17:44:20;1.83;;;1.20;;
3979;SDS011;2004;52.452;13.120;2022-08-01T17:52:11;3.97;;;1.10;;
3979;SDS011;2004;52.452;13.120;2022-08-01T18:00:03;9.60;;;1.47;;
3979;SDS011;2004;52.452;13.120;2022-08-01T18:07:54;4.10;;;1.20;;
3979;SDS011;2004;52.452;13.120;2022-08-01T18:15:45;1.60;;;1.50;;
3979;SDS011;2004;52.452;13.120;2022-08-01T18:23:35;3.87;;;1.53;;
3979;SDS011;2004;52.452;13.120;2022-08-01T18:31:26;5.90;;;1.27;;
3979;SDS011;2004;52.452;13.120;2022-08-01T18:39:16;1.53;;;1.43;;
3979;SDS011;2004;52.452;13.120;2022-08-01T18:47:07;1.60;;;1.37;;
3979;SDS011;2004;52.452;13.120;2022-08-01T18:54:58;5.70;;;1.63;;
3979;SDS011;2004;52.452;13.120;2022-08-01T19:02:48;5.80;;;1.70;;
3979;SDS011;2004;52.452;13.120;2022-08-01T19:10:39;3.93;;;1.43;;
3979;SDS011;2004;52.452;13.120;2022-08-01T19:18:30;4.87;;;1.30;;
3979;SDS011;2004;52.452;13.120;2022-08-01T19:26:23;3.33;;;1.47;;
3979;SDS011;2004;52.452;13.120;2022-08-01T19:34:16;4.37;;;1.53;;
3979;SDS011;2004;52.452;13.120;2022-08-01T19:42:09;2.50;;;1.60;;
3979;SDS011;2004;52.452;13.120;2022-08-01T19:50:02;7.83;;;2.10;;
3979;SDS011;2004;52.452;13.120;2022-08-01T19:57:54;2.30;;;1.57;;
3979;SDS011;2004;52.452;13.120;2022-08-01T20:05:47;3.60;;;1.40;;
3979;SDS011;2004;52.452;13.120;2022-08-01T20:13:39;3.13;;;1.33;;
3979;SDS011;2004;52.452;13.120;2022-08-01T20:21:30;6.57;;;1.87;;
3979;SDS011;2004;52.452;13.120;2022-08-01T20:29:23;3.63;;;1.80;;
3979;SDS011;2004;52.452;13.120;2022-08-01T20:37:16;9.20;;;2.07;;
3979;SDS011;2004;52.452;13.120;2022-08-01T20:45:10;3.37;;;1.90;;
3979;SDS011;2004;52.452;13.120;2022-08-01T20:53:02;1.40;;;1.30;;
3979;SDS011;2004;52.452;13.120;2022-08-01T21:00:53;2.00;;;1.80;;
3979;SDS011;2004;52.452;13.120;2022-08-01T21:08:45;6.37;;;1.47;;
3979;SDS011;2004;52.452;13.120;2022-08-01T21:16:40;9.03;;;1.97;;
3979;SDS011;2004;52.452;13.120;2022-08-01T21:24:40;4.47;;;2.10;;
3979;SDS011;2004;52.452;13.120;2022-08-01T21:32:43;4.70;;;2.20;;
3979;SDS011;2004;52.452;13.120;2022-08-01T21:40:36;3.97;;;2.00;;
3979;SDS011;2004;52.452;13.120;2022-08-01T21:48:27;11.93;;;3.13;;
3979;SDS011;2004;52.452;13.120;2022-08-01T22:04:12;3.23;;;1.57;;
3979;SDS011;2004;52.452;13.120;2022-08-01T22:12:05;5.00;;;1.73;;
3979;SDS011;2004;52.452;13.120;2022-08-01T22:19:56;12.53;;;1.90;;
3979;SDS011;2004;52.452;13.120;2022-08-01T22:27:48;3.47;;;1.30;;
3979;SDS011;2004;52.452;13.120;2022-08-01T22:35:39;4.47;;;2.10;;
3979;SDS011;2004;52.452;13.120;2022-08-01T23:00:04;6.70;;;1.70;;
3979;SDS011;2004;52.452;13.120;2022-08-01T23:07:56;4.70;;;1.70;;
3979;SDS011;2004;52.452;13.120;2022-08-01T23:15:50;6.63;;;1.73;;
3979;SDS011;2004;52.452;13.120;2022-08-01T23:23:41;6.93;;;2.17;;
3979;SDS011;2004;52.452;13.120;2022-08-01T23:31:34;9.97;;;2.57;;
3979;SDS011;2004;52.452;13.120;2022-08-01T23:39:25;5.47;;;1.63;;
3979;SDS011;2004;52.452;13.120;2022-08-01T23:47:16;5.57;;;1.80;;
3979;SDS011;2004;52.452;13.120;2022-08-01T23:55:06;6.07;;;1.80;;
